Terminal Aerodrome Forecast
Issued by NWS

Home | Current Version | Previous Version | Text Only | Print | Product List | Glossary On
Versions: 1 2 3 4 5 6 7 8 9 10 11 12 13 14 15 16 17 18 19 20
000
FTUS46 KSGX 011402 AAA
TAFCRQ
TAF AMD
KCRQ 011402Z 0114/0212 16005KT P6SM BKN022
     FM011730 20005KT P6SM SCT022 SCT200
     FM011900 24009KT P6SM SCT200
     FM020100 VRB04KT P6SM SCT020
      TEMPO 0203/0207 BKN018
     FM020700 VRB04KT P6SM BKN020=

USA.gov is the U.S. government's official web portal to all federal, state and local government web resources and services.